createdAt,value
2023-05-07T00:00:29.518Z,27.15
2023-05-07T00:03:02.754Z,27.14
2023-05-07T00:05:42.658Z,27.14
2023-05-07T00:08:21.758Z,27.15
2023-05-07T00:10:55.006Z,27.13
2023-05-07T00:13:36.274Z,27.15
2023-05-07T00:16:09.436Z,27.13
2023-05-07T00:18:47.352Z,27.15
2023-05-07T00:21:26.426Z,27.13
2023-05-07T00:24:02.122Z,27.14
2023-05-07T00:26:38.151Z,27.14
2023-05-07T00:29:11.013Z,27.11
2023-05-07T00:31:46.675Z,27.13
2023-05-07T00:34:24.585Z,27.14
2023-05-07T00:37:02.536Z,27.15
2023-05-07T00:39:36.832Z,27.16
2023-05-07T00:42:16.084Z,27.13
2023-05-07T00:44:51.963Z,27.18
2023-05-07T00:47:26.478Z,27.16
2023-05-07T00:50:02.521Z,27.12
2023-05-07T00:52:38.603Z,27.11
2023-05-07T00:55:15.639Z,27.11
2023-05-07T00:57:49.177Z,27.17
2023-05-07T01:00:32.022Z,27.11
2023-05-07T01:03:10.651Z,27.08
2023-05-07T01:05:49.453Z,27.13
2023-05-07T01:08:29.675Z,27.12
2023-05-07T01:11:12.372Z,27.15
2023-05-07T01:13:51.014Z,27.17
2023-05-07T01:16:29.718Z,27.14
2023-05-07T01:19:08.622Z,27.14
2023-05-07T01:21:46.919Z,27.09
2023-05-07T01:24:23.039Z,27.07
2023-05-07T01:26:56.314Z,27.07
2023-05-07T01:29:34.545Z,27.07
2023-05-07T01:32:07.684Z,27.05
2023-05-07T01:34:47.793Z,27.01
2023-05-07T01:37:24.587Z,27.01
2023-05-07T01:39:57.946Z,27.02
2023-05-07T01:42:31.275Z,26.99
2023-05-07T01:45:12.503Z,27.03
2023-05-07T01:47:47.975Z,26.97
2023-05-07T01:50:24.166Z,26.98
2023-05-07T01:53:02.486Z,26.95
2023-05-07T01:55:37.753Z,26.96
2023-05-07T01:58:11.749Z,26.97
2023-05-07T02:00:49.457Z,26.98
2023-05-07T02:03:26.845Z,26.93
2023-05-07T02:06:10.794Z,26.96
2023-05-07T02:08:48.782Z,26.94
2023-05-07T02:11:23.721Z,26.96
2023-05-07T02:13:54.311Z,26.95
2023-05-07T02:16:32.301Z,26.93
2023-05-07T02:19:05.502Z,26.94
2023-05-07T02:21:43.138Z,26.94
2023-05-07T02:24:11.827Z,26.94
2023-05-07T02:26:47.844Z,26.95
2023-05-07T02:29:22.041Z,26.92
2023-05-07T02:31:59.861Z,26.89
2023-05-07T02:34:34.809Z,26.85
2023-05-07T02:37:06.689Z,26.89
2023-05-07T02:39:43.547Z,26.89
2023-05-07T02:42:19.371Z,26.89
2023-05-07T02:44:56.170Z,26.90
2023-05-07T02:47:32.201Z,26.87
2023-05-07T02:50:07.644Z,26.91
2023-05-07T02:52:38.073Z,26.89
2023-05-07T02:55:16.069Z,26.88
2023-05-07T02:57:52.858Z,26.89
2023-05-07T03:00:25.882Z,26.87
2023-05-07T03:03:30.576Z,26.88
2023-05-07T03:06:06.386Z,26.86
2023-05-07T03:08:39.720Z,26.88
2023-05-07T03:11:15.933Z,26.84
2023-05-07T03:13:54.721Z,26.88
2023-05-07T03:16:39.175Z,26.85
2023-05-07T03:19:14.829Z,26.82
2023-05-07T03:21:47.688Z,26.77
2023-05-07T03:24:21.130Z,26.80
2023-05-07T03:26:56.918Z,26.79
2023-05-07T03:29:27.229Z,26.82
2023-05-07T03:32:00.103Z,26.81
2023-05-07T03:34:35.904Z,26.79
2023-05-07T03:37:08.706Z,26.78
2023-05-07T03:39:39.335Z,26.78
2023-05-07T03:42:15.772Z,26.80
2023-05-07T03:44:48.636Z,26.79
2023-05-07T03:47:27.176Z,26.76
2023-05-07T03:50:08.338Z,26.76
2023-05-07T03:52:44.565Z,26.76
2023-05-07T03:55:19.074Z,26.74
2023-05-07T03:58:00.176Z,26.72
2023-05-07T04:00:40.090Z,26.72
2023-05-07T04:03:32.622Z,26.75
2023-05-07T04:06:09.497Z,26.76
2023-05-07T04:08:46.325Z,26.73
2023-05-07T04:11:28.331Z,26.72
2023-05-07T04:13:56.335Z,26.72
2023-05-07T04:16:32.878Z,26.71
2023-05-07T04:19:11.523Z,26.68
2023-05-07T04:21:52.832Z,26.69
2023-05-07T04:24:28.655Z,26.71
2023-05-07T04:27:04.495Z,26.74
2023-05-07T04:29:48.170Z,26.72
2023-05-07T04:32:21.828Z,26.71
2023-05-07T04:35:00.551Z,26.70
2023-05-07T04:37:36.862Z,26.74
2023-05-07T04:40:16.983Z,26.70
2023-05-07T04:42:57.912Z,26.71
2023-05-07T04:45:36.388Z,26.76
2023-05-07T04:48:11.003Z,26.72
2023-05-07T04:50:51.343Z,26.71
2023-05-07T04:53:26.029Z,26.77
2023-05-07T04:55:58.508Z,26.71
2023-05-07T04:58:40.921Z,26.69
2023-05-07T05:01:17.427Z,26.72
2023-05-07T05:03:56.848Z,26.73
2023-05-07T05:06:34.497Z,26.75
2023-05-07T05:09:11.005Z,26.76
2023-05-07T05:11:53.137Z,26.76
2023-05-07T05:14:28.895Z,26.78
2023-05-07T05:17:10.110Z,26.83
2023-05-07T05:19:48.910Z,26.85
2023-05-07T05:22:30.715Z,26.85
2023-05-07T05:25:06.945Z,26.87
2023-05-07T05:27:47.580Z,26.82
2023-05-07T05:30:26.563Z,26.84
2023-05-07T05:33:03.124Z,26.80
2023-05-07T05:35:41.794Z,26.80
2023-05-07T05:38:26.913Z,26.84
2023-05-07T05:41:03.005Z,26.86
2023-05-07T05:43:38.851Z,26.86
2023-05-07T05:46:16.266Z,26.85
2023-05-07T05:48:46.661Z,26.86
2023-05-07T05:51:22.785Z,26.86
2023-05-07T05:53:58.545Z,26.91
2023-05-07T05:56:40.336Z,26.91
2023-05-07T05:59:17.402Z,26.89
2023-05-07T06:01:48.442Z,26.90
2023-05-07T06:04:27.244Z,26.95
2023-05-07T06:07:07.391Z,26.94
2023-05-07T06:09:40.841Z,26.95
2023-05-07T06:12:10.756Z,26.97
2023-05-07T06:14:46.784Z,26.98
2023-05-07T06:17:25.314Z,26.98
2023-05-07T06:20:05.179Z,27.01
2023-05-07T06:22:38.192Z,27.05
2023-05-07T06:25:08.930Z,27.05
2023-05-07T06:27:41.716Z,27.05
2023-05-07T06:30:22.927Z,27.08
2023-05-07T06:33:03.865Z,27.11
2023-05-07T06:35:39.824Z,27.15
2023-05-07T06:38:18.992Z,27.17
2023-05-07T06:40:58.143Z,27.16
2023-05-07T06:43:34.567Z,27.16
2023-05-07T06:46:32.671Z,27.18
2023-05-07T06:49:07.180Z,27.24
2023-05-07T06:51:45.216Z,27.28
2023-05-07T06:54:24.393Z,27.27
2023-05-07T06:57:03.864Z,27.27
2023-05-07T06:59:41.248Z,27.29
2023-05-07T07:02:18.289Z,27.27
2023-05-07T07:05:04.116Z,27.29
2023-05-07T07:07:39.939Z,27.32
2023-05-07T07:10:19.566Z,27.36
2023-05-07T07:12:58.169Z,27.38
2023-05-07T07:15:34.719Z,27.41
2023-05-07T07:18:10.914Z,27.34
2023-05-07T07:20:50.971Z,27.40
2023-05-07T07:23:27.388Z,27.40
2023-05-07T07:26:04.368Z,27.45
2023-05-07T07:28:37.231Z,27.51
2023-05-07T07:31:09.929Z,27.45
2023-05-07T07:33:43.290Z,27.50
2023-05-07T07:36:17.195Z,27.47
2023-05-07T07:38:52.573Z,27.53
2023-05-07T07:41:25.572Z,27.58
2023-05-07T07:44:04.675Z,27.55
2023-05-07T07:46:42.325Z,27.57
2023-05-07T07:49:14.940Z,27.60
2023-05-07T07:51:46.496Z,27.58
2023-05-07T07:54:22.199Z,27.56
2023-05-07T07:56:52.676Z,27.55
2023-05-07T07:59:25.586Z,27.57
2023-05-07T08:02:03.266Z,27.56
2023-05-07T08:04:40.170Z,27.56
2023-05-07T08:07:11.843Z,27.64
2023-05-07T08:09:50.526Z,27.63
2023-05-07T08:12:27.063Z,27.65
2023-05-07T08:15:00.844Z,27.65
2023-05-07T08:17:34.409Z,27.61
2023-05-07T08:20:07.623Z,27.67
2023-05-07T08:22:43.978Z,27.64
2023-05-07T08:25:19.381Z,27.64
2023-05-07T08:27:51.809Z,27.65
2023-05-07T08:30:25.314Z,27.69
2023-05-07T08:33:03.543Z,27.74
2023-05-07T08:35:36.385Z,27.67
2023-05-07T08:38:13.180Z,27.72
2023-05-07T08:40:46.610Z,27.75
2023-05-07T08:43:30.439Z,27.83
2023-05-07T08:46:10.038Z,27.77
2023-05-07T08:48:45.614Z,27.75
2023-05-07T08:51:26.641Z,27.81
2023-05-07T08:53:59.542Z,27.87
2023-05-07T08:56:40.827Z,27.85
2023-05-07T08:59:17.229Z,27.84
2023-05-07T09:01:51.376Z,27.83
2023-05-07T09:04:25.061Z,27.87
2023-05-07T09:07:04.728Z,27.81
2023-05-07T09:09:43.726Z,27.83
2023-05-07T09:12:18.695Z,27.87
2023-05-07T09:14:54.557Z,27.89
2023-05-07T09:17:32.417Z,27.88
2023-05-07T09:20:11.491Z,27.89
2023-05-07T09:22:52.137Z,27.90
2023-05-07T09:25:31.199Z,27.86
2023-05-07T09:28:16.733Z,27.92
2023-05-07T09:30:48.389Z,27.87
2023-05-07T09:33:24.578Z,27.88
2023-05-07T09:36:09.725Z,27.90
2023-05-07T09:38:40.189Z,27.86
2023-05-07T09:41:13.923Z,27.91
2023-05-07T09:43:57.381Z,27.92
2023-05-07T09:46:40.467Z,27.96
2023-05-07T09:49:32.540Z,27.98
2023-05-07T09:52:11.598Z,27.94
2023-05-07T09:54:54.034Z,28.01
2023-05-07T09:57:33.269Z,27.97
2023-05-07T10:00:11.907Z,27.98
2023-05-07T10:02:59.494Z,27.97
2023-05-07T10:05:48.415Z,27.97
2023-05-07T10:08:21.035Z,28.01
2023-05-07T10:10:56.697Z,27.99
2023-05-07T10:13:35.897Z,27.97
2023-05-07T10:16:15.788Z,27.96
2023-05-07T10:18:56.869Z,27.99
2023-05-07T10:21:41.060Z,28.05
2023-05-07T10:24:29.392Z,28.04
2023-05-07T10:27:12.128Z,28.00
2023-05-07T10:30:01.494Z,28.03
2023-05-07T10:32:43.706Z,28.14
2023-05-07T10:35:27.936Z,28.10
2023-05-07T10:38:01.547Z,28.07
2023-05-07T10:40:40.938Z,28.13
2023-05-07T10:43:14.469Z,28.12
2023-05-07T10:46:17.823Z,28.11
2023-05-07T10:49:14.462Z,28.12
2023-05-07T10:52:19.910Z,28.15
2023-05-07T10:55:20.957Z,28.18
2023-05-07T11:01:50.924Z,28.19
2023-05-07T11:04:27.407Z,28.17
2023-05-07T11:07:14.432Z,28.22
2023-05-07T11:09:55.854Z,28.20
2023-05-07T11:12:45.042Z,28.14
2023-05-07T11:15:43.444Z,28.24
2023-05-07T11:18:52.978Z,28.29
2023-05-07T11:21:45.752Z,28.26
2023-05-07T11:24:45.417Z,28.27
2023-05-07T11:27:26.381Z,28.28
2023-05-07T11:29:59.300Z,28.20
2023-05-07T11:32:33.634Z,28.18
2023-05-07T11:35:02.170Z,28.18
2023-05-07T11:37:31.829Z,28.21
2023-05-07T11:40:15.143Z,28.25
2023-05-07T11:42:53.918Z,28.19
2023-05-07T11:45:27.637Z,28.19
2023-05-07T11:48:00.503Z,28.24
2023-05-07T11:50:52.202Z,28.26
2023-05-07T11:53:31.571Z,28.26
2023-05-07T11:56:12.678Z,28.25
2023-05-07T11:58:43.804Z,28.23
2023-05-07T12:01:17.569Z,28.23
2023-05-07T12:03:48.481Z,28.24
2023-05-07T12:06:21.933Z,28.24
2023-05-07T12:09:03.477Z,28.24
2023-05-07T12:11:36.345Z,28.25
2023-05-07T12:14:12.425Z,28.24
2023-05-07T12:16:52.482Z,28.22
2023-05-07T12:19:32.513Z,28.23
2023-05-07T12:22:08.342Z,28.26
2023-05-07T12:24:52.525Z,28.21
2023-05-07T12:27:27.336Z,28.27
2023-05-07T12:30:02.031Z,28.25
2023-05-07T12:32:37.509Z,28.21
2023-05-07T12:35:16.644Z,28.27
2023-05-07T12:38:00.794Z,28.28
2023-05-07T12:40:41.953Z,28.30
2023-05-07T12:43:27.552Z,28.36
2023-05-07T12:46:07.798Z,28.34
2023-05-07T12:48:47.934Z,28.32
2023-05-07T12:51:21.674Z,28.33
2023-05-07T12:53:51.902Z,28.30
2023-05-07T12:56:25.882Z,28.29
2023-05-07T12:59:03.611Z,28.31
2023-05-07T13:01:38.618Z,28.37
2023-05-07T13:04:17.026Z,28.39
2023-05-07T13:06:49.673Z,28.40
2023-05-07T13:09:22.020Z,28.43
2023-05-07T13:12:02.442Z,28.42
2023-05-07T13:14:36.625Z,28.36
2023-05-07T13:17:08.649Z,28.35
2023-05-07T13:19:42.919Z,28.34
2023-05-07T13:22:22.168Z,28.31
2023-05-07T13:24:57.832Z,28.23
2023-05-07T13:27:35.674Z,28.26
2023-05-07T13:30:08.999Z,28.26
2023-05-07T13:32:40.670Z,28.29
2023-05-07T13:35:16.530Z,28.33
2023-05-07T13:37:53.032Z,28.35
2023-05-07T13:40:26.264Z,28.27
2023-05-07T13:43:04.338Z,28.27
2023-05-07T13:45:39.936Z,28.29
2023-05-07T13:48:13.321Z,28.25
2023-05-07T13:50:45.834Z,28.14
2023-05-07T13:53:24.281Z,28.18
2023-05-07T13:55:54.295Z,28.19
2023-05-07T13:58:24.570Z,28.25
2023-05-07T14:00:56.329Z,28.12
2023-05-07T14:03:29.364Z,28.09
2023-05-07T14:06:05.297Z,28.11
2023-05-07T14:08:38.049Z,28.13
2023-05-07T14:11:07.553Z,28.13
2023-05-07T14:13:46.753Z,28.25
2023-05-07T14:16:28.402Z,28.33
2023-05-07T14:19:02.100Z,28.37
2023-05-07T14:21:38.220Z,28.36
2023-05-07T14:24:13.480Z,28.33
2023-05-07T14:26:58.156Z,28.31
2023-05-07T14:29:31.360Z,28.31
2023-05-07T14:32:13.550Z,28.33
2023-05-07T14:34:45.746Z,28.33
2023-05-07T14:37:21.129Z,28.36
2023-05-07T14:39:51.306Z,28.30
2023-05-07T14:42:21.862Z,28.26
2023-05-07T14:44:58.221Z,28.22
2023-05-07T14:47:28.622Z,28.21
2023-05-07T14:50:03.597Z,28.20
2023-05-07T14:52:37.244Z,28.23
2023-05-07T14:55:11.017Z,28.25
2023-05-07T14:57:45.937Z,28.26
2023-05-07T15:00:19.155Z,28.26
2023-05-07T15:03:04.797Z,28.24
2023-05-07T15:05:42.761Z,28.25
2023-05-07T15:08:21.140Z,28.25
2023-05-07T15:10:56.276Z,28.25
2023-05-07T15:13:26.589Z,28.27
2023-05-07T15:16:02.796Z,28.25
2023-05-07T15:18:41.960Z,28.26
2023-05-07T15:21:17.840Z,28.22
2023-05-07T15:23:51.923Z,28.21
2023-05-07T15:26:28.819Z,28.24
2023-05-07T15:29:04.079Z,28.22
2023-05-07T15:31:38.067Z,28.22
2023-05-07T15:34:28.162Z,28.25
2023-05-07T15:36:59.440Z,28.22
2023-05-07T15:39:29.966Z,28.24
2023-05-07T15:42:03.817Z,28.29
2023-05-07T15:44:36.041Z,28.23
2023-05-07T15:47:08.814Z,28.28
2023-05-07T15:49:41.861Z,28.28
2023-05-07T15:52:22.683Z,28.25
2023-05-07T15:54:50.875Z,28.30
2023-05-07T15:57:23.883Z,28.28
2023-05-07T16:00:03.030Z,28.25
2023-05-07T16:02:40.452Z,28.28
2023-05-07T16:05:11.036Z,28.25
2023-05-07T16:07:39.455Z,28.22
2023-05-07T16:10:28.367Z,28.22
2023-05-07T16:13:03.051Z,28.24
2023-05-07T16:15:36.298Z,28.28
2023-05-07T16:18:10.766Z,28.26
2023-05-07T16:20:46.437Z,28.24
2023-05-07T16:23:22.673Z,28.25
2023-05-07T16:25:55.442Z,28.25
2023-05-07T16:28:28.937Z,28.25
2023-05-07T16:31:01.914Z,28.21
2023-05-07T16:33:36.072Z,28.22
2023-05-07T16:36:12.947Z,28.21
2023-05-07T16:38:45.960Z,28.24
2023-05-07T16:41:30.765Z,28.24
2023-05-07T16:44:06.202Z,28.22
2023-05-07T16:46:41.535Z,28.24
2023-05-07T16:49:16.863Z,28.24
2023-05-07T16:51:53.867Z,28.20
2023-05-07T16:54:29.211Z,28.19
2023-05-07T16:57:05.029Z,28.22
2023-05-07T16:59:35.644Z,28.21
2023-05-07T17:02:12.168Z,28.18
2023-05-07T17:04:42.984Z,28.13
2023-05-07T17:07:16.428Z,28.15
2023-05-07T17:09:47.328Z,28.12
2023-05-07T17:12:21.341Z,28.13
2023-05-07T17:14:59.874Z,28.14
2023-05-07T17:17:35.149Z,28.17
2023-05-07T17:20:09.227Z,28.13
2023-05-07T17:22:45.847Z,28.10
2023-05-07T17:25:23.557Z,28.11
2023-05-07T17:28:02.065Z,28.10
2023-05-07T17:30:42.678Z,28.12
2023-05-07T17:33:22.495Z,28.08
2023-05-07T17:35:55.859Z,28.06
2023-05-07T17:38:26.029Z,28.06
2023-05-07T17:40:59.140Z,28.05
2023-05-07T17:43:28.951Z,28.04
2023-05-07T17:46:06.252Z,28.02
2023-05-07T17:48:38.914Z,28.00
2023-05-07T17:51:11.690Z,28.00
2023-05-07T17:53:47.957Z,27.98
2023-05-07T17:56:17.807Z,27.98
2023-05-07T17:58:59.185Z,27.94
2023-05-07T18:01:34.206Z,27.93
2023-05-07T18:04:09.088Z,27.94
2023-05-07T18:06:42.965Z,27.91
2023-05-07T18:09:13.795Z,27.88
2023-05-07T18:11:44.200Z,27.89
2023-05-07T18:14:16.472Z,27.88
2023-05-07T18:16:50.182Z,27.85
2023-05-07T18:19:23.148Z,27.89
2023-05-07T18:21:55.403Z,27.85
2023-05-07T18:24:27.737Z,27.86
2023-05-07T18:27:02.434Z,27.86
2023-05-07T18:29:36.946Z,27.85
2023-05-07T18:32:14.770Z,27.87
2023-05-07T18:34:47.939Z,27.83
2023-05-07T18:37:19.220Z,27.82
2023-05-07T18:39:56.681Z,27.81
2023-05-07T18:42:36.979Z,27.81
2023-05-07T18:45:10.581Z,27.82
2023-05-07T18:47:43.590Z,27.80
2023-05-07T18:50:20.173Z,27.82
2023-05-07T18:52:53.066Z,27.81
2023-05-07T18:55:23.694Z,27.82
2023-05-07T18:58:02.023Z,27.78
2023-05-07T19:00:33.129Z,27.78
2023-05-07T19:03:15.065Z,27.76
2023-05-07T19:05:45.992Z,27.79
2023-05-07T19:08:14.752Z,27.77
2023-05-07T19:10:49.811Z,27.74
2023-05-07T19:13:27.527Z,27.74
2023-05-07T19:16:11.143Z,27.70
2023-05-07T19:18:46.223Z,27.70
2023-05-07T19:21:22.236Z,27.64
2023-05-07T19:23:53.964Z,27.62
2023-05-07T19:26:24.680Z,27.66
2023-05-07T19:29:11.770Z,27.64
2023-05-07T19:31:54.566Z,27.63
2023-05-07T19:34:27.626Z,27.61
2023-05-07T19:37:00.354Z,27.57
2023-05-07T19:39:33.089Z,27.57
2023-05-07T19:42:13.326Z,27.57
2023-05-07T19:44:46.480Z,27.59
2023-05-07T19:47:25.714Z,27.56
2023-05-07T19:49:58.175Z,27.58
2023-05-07T19:52:31.838Z,27.61
2023-05-07T19:55:04.364Z,27.62
2023-05-07T19:57:35.055Z,27.58
2023-05-07T20:00:09.984Z,27.60
2023-05-07T20:02:48.938Z,27.58
2023-05-07T20:05:19.389Z,27.58
2023-05-07T20:07:52.823Z,27.57
2023-05-07T20:10:28.210Z,27.57
2023-05-07T20:13:01.099Z,27.56
2023-05-07T20:15:34.800Z,27.56
2023-05-07T20:18:04.992Z,27.54
2023-05-07T20:20:36.848Z,27.56
2023-05-07T20:23:09.793Z,27.54
2023-05-07T20:25:50.312Z,27.53
2023-05-07T20:28:23.441Z,27.57
2023-05-07T20:30:54.885Z,27.56
2023-05-07T20:33:27.790Z,27.46
2023-05-07T20:36:04.678Z,27.45
2023-05-07T20:38:42.649Z,27.50
2023-05-07T20:41:14.394Z,27.42
2023-05-07T20:43:48.676Z,27.40
2023-05-07T20:46:23.031Z,27.41
2023-05-07T20:48:57.269Z,27.38
2023-05-07T20:51:30.358Z,27.35
2023-05-07T20:54:00.720Z,27.36
2023-05-07T20:56:36.180Z,27.34
2023-05-07T20:59:07.224Z,27.36
2023-05-07T21:01:40.674Z,27.42
2023-05-07T21:04:15.293Z,27.39
2023-05-07T21:06:54.696Z,27.42
2023-05-07T21:09:24.508Z,27.39
2023-05-07T21:11:58.129Z,27.45
2023-05-07T21:14:30.111Z,27.44
2023-05-07T21:17:05.269Z,27.43
2023-05-07T21:19:43.154Z,27.40
2023-05-07T21:22:16.561Z,27.37
2023-05-07T21:24:51.312Z,27.34
2023-05-07T21:27:26.228Z,27.36
2023-05-07T21:30:06.152Z,27.40
2023-05-07T21:32:39.509Z,27.43
2023-05-07T21:35:10.302Z,27.40
2023-05-07T21:37:50.538Z,27.45
2023-05-07T21:40:23.399Z,27.49
2023-05-07T21:42:58.596Z,27.46
2023-05-07T21:45:31.106Z,27.54
2023-05-07T21:48:09.814Z,27.52
2023-05-07T21:50:43.065Z,27.49
2023-05-07T21:53:15.112Z,27.51
2023-05-07T21:55:49.908Z,27.56
2023-05-07T21:58:25.265Z,27.53
2023-05-07T22:01:05.393Z,27.52
2023-05-07T22:03:42.204Z,27.52
2023-05-07T22:06:21.538Z,27.49
2023-05-07T22:08:55.469Z,27.45
2023-05-07T22:11:28.684Z,27.45
2023-05-07T22:14:01.246Z,27.45
2023-05-07T22:16:31.510Z,27.49
2023-05-07T22:19:05.422Z,27.44
2023-05-07T22:21:44.857Z,27.46
2023-05-07T22:24:18.346Z,27.46
2023-05-07T22:26:53.678Z,27.48
2023-05-07T22:29:32.801Z,27.47
2023-05-07T22:32:11.877Z,27.43
2023-05-07T22:34:51.612Z,27.40
2023-05-07T22:37:19.255Z,27.39
2023-05-07T22:39:53.345Z,27.36
2023-05-07T22:42:26.122Z,27.38
2023-05-07T22:45:02.754Z,27.38
2023-05-07T22:47:38.575Z,27.40
2023-05-07T22:50:18.721Z,27.34
2023-05-07T22:52:54.723Z,27.34
2023-05-07T22:55:29.591Z,27.35
2023-05-07T22:58:02.596Z,27.31
2023-05-07T23:00:38.648Z,27.31
2023-05-07T23:03:11.699Z,27.32
2023-05-07T23:05:41.755Z,27.32
2023-05-07T23:08:14.095Z,27.26
2023-05-07T23:10:49.809Z,27.28
2023-05-07T23:13:26.178Z,27.27
2023-05-07T23:15:58.905Z,27.26
2023-05-07T23:18:34.190Z,27.26
2023-05-07T23:21:07.312Z,27.28
2023-05-07T23:23:43.452Z,27.27
2023-05-07T23:26:21.517Z,27.27
2023-05-07T23:28:51.532Z,27.28
2023-05-07T23:31:22.728Z,27.20
2023-05-07T23:33:58.589Z,27.17
2023-05-07T23:36:35.222Z,27.17
2023-05-07T23:39:08.150Z,27.15
2023-05-07T23:41:35.882Z,27.15
2023-05-07T23:44:12.405Z,27.11
2023-05-07T23:46:46.164Z,27.14
2023-05-07T23:49:20.094Z,27.13
2023-05-07T23:51:52.937Z,27.15
2023-05-07T23:54:28.757Z,27.18
2023-05-07T23:57:04.601Z,27.21
2023-05-07T23:59:36.596Z,27.19
